createdAt,value
2017-12-16T07:17:26.596Z,51.00
2017-12-16T07:19:59.238Z,52.30
2017-12-16T07:22:31.172Z,51.07
2017-12-16T07:25:03.045Z,51.47
2017-12-16T07:27:35.136Z,48.60
2017-12-16T07:30:07.007Z,54.17
2017-12-16T07:32:38.932Z,53.90
2017-12-16T07:35:10.808Z,49.00
2017-12-16T07:37:42.696Z,51.47
2017-12-16T07:40:15.336Z,55.23
2017-12-16T07:42:47.219Z,57.60
2017-12-16T07:45:19.095Z,52.53
2017-12-16T07:47:51.743Z,59.03
2017-12-16T07:50:23.624Z,61.43
2017-12-16T07:52:57.155Z,64.27
2017-12-16T07:55:29.028Z,63.50
2017-12-16T07:58:01.172Z,60.47
2017-12-16T08:00:33.048Z,67.20
2017-12-16T08:03:04.972Z,69.87
2017-12-16T08:05:37.607Z,65.93
2017-12-16T08:08:09.513Z,57.63
2017-12-16T08:10:42.147Z,62.10
2017-12-16T08:13:14.083Z,56.67
2017-12-16T08:15:45.956Z,64.20
2017-12-16T08:18:17.879Z,63.10
2017-12-16T08:20:50.511Z,63.90
2017-12-16T08:23:22.416Z,56.47
2017-12-16T08:25:55.052Z,63.43
2017-12-16T08:28:26.975Z,54.47
2017-12-16T08:30:58.843Z,53.43
2017-12-16T08:33:30.727Z,57.87
2017-12-16T08:36:02.857Z,54.60
2017-12-16T08:38:34.776Z,53.30
2017-12-16T08:41:06.651Z,52.37
2017-12-16T08:43:38.564Z,51.47
2017-12-16T08:46:10.431Z,55.30
2017-12-16T08:48:42.359Z,53.47
2017-12-16T08:51:14.240Z,50.77
2017-12-16T08:53:46.171Z,53.00
2017-12-16T08:56:18.803Z,48.30
2017-12-16T08:58:50.727Z,49.90
2017-12-16T09:01:22.616Z,45.63
2017-12-16T09:03:54.532Z,46.63
2017-12-16T09:06:27.176Z,48.10
2017-12-16T09:08:59.060Z,43.43
2017-12-16T09:11:31.690Z,42.37
2017-12-16T09:14:03.584Z,47.83
2017-12-16T09:16:35.453Z,45.33
2017-12-16T09:19:08.110Z,43.97
2017-12-16T09:21:39.984Z,42.57
2017-12-16T09:24:11.871Z,43.50
2017-12-16T09:26:44.519Z,38.00
2017-12-16T09:29:16.439Z,42.37
2017-12-16T09:31:48.308Z,40.03
2017-12-16T09:34:20.216Z,35.27
2017-12-16T09:36:52.084Z,35.00
2017-12-16T09:39:24.772Z,33.87
2017-12-16T09:41:57.402Z,36.63
2017-12-16T09:44:29.324Z,37.20
2017-12-16T09:47:01.200Z,34.43
2017-12-16T09:49:33.140Z,42.50
2017-12-16T09:52:05.008Z,32.53
2017-12-16T09:54:36.940Z,35.93
2017-12-16T09:57:09.576Z,33.27
2017-12-16T09:59:41.484Z,32.40
2017-12-16T10:02:14.120Z,29.67
2017-12-16T10:04:46.044Z,25.50
2017-12-16T10:07:17.923Z,25.40
2017-12-16T10:09:49.836Z,28.53
2017-12-16T10:12:22.476Z,25.57
2017-12-16T10:14:54.396Z,25.27
2017-12-16T10:17:26.272Z,33.03
2017-12-16T10:19:58.171Z,27.03
2017-12-16T10:22:30.044Z,26.43
2017-12-16T10:25:01.963Z,26.50
2017-12-16T10:27:33.831Z,34.13
2017-12-16T10:30:05.759Z,30.10
2017-12-16T10:32:37.656Z,32.67
2017-12-16T10:35:09.548Z,24.43
2017-12-16T10:37:41.427Z,27.77
2017-12-16T10:40:14.122Z,25.70
2017-12-16T10:42:45.992Z,21.23
2017-12-16T10:45:17.876Z,23.30
2017-12-16T10:47:49.747Z,19.93
2017-12-16T10:50:21.632Z,20.23
2017-12-16T10:52:54.276Z,19.13
2017-12-16T10:55:26.165Z,28.03
2017-12-16T10:57:58.036Z,25.93
2017-12-16T11:00:30.741Z,22.70
2017-12-16T11:03:02.612Z,20.93
2017-12-16T11:05:34.499Z,23.93
2017-12-16T11:08:06.376Z,27.40
2017-12-16T11:10:38.301Z,26.73
2017-12-16T11:13:10.173Z,22.00
2017-12-16T11:15:42.059Z,23.47
2017-12-16T11:18:14.713Z,30.57
2017-12-16T11:20:46.631Z,21.07
2017-12-16T11:23:18.507Z,20.27
2017-12-16T11:25:50.408Z,29.03
2017-12-16T11:28:22.284Z,16.70
2017-12-16T11:30:54.221Z,20.33
2017-12-16T11:33:26.091Z,15.73
2017-12-16T11:35:58.305Z,24.00
2017-12-16T11:38:30.180Z,18.93
2017-12-16T11:41:02.132Z,15.33
2017-12-16T11:43:33.996Z,17.17
2017-12-16T11:46:05.908Z,16.63
2017-12-16T11:48:37.784Z,17.27
2017-12-16T11:51:10.447Z,14.53
2017-12-16T11:53:42.313Z,17.00
2017-12-16T11:56:14.507Z,16.27
2017-12-16T11:58:46.392Z,15.47
2017-12-16T12:01:18.275Z,22.27
2017-12-16T12:03:50.144Z,22.83
2017-12-16T12:06:22.071Z,15.90
2017-12-16T12:08:53.941Z,14.50
2017-12-16T12:11:25.832Z,14.17
2017-12-16T12:13:57.704Z,17.13
2017-12-16T12:16:29.648Z,15.27
2017-12-16T12:19:01.531Z,15.30
2017-12-16T12:21:34.216Z,14.23
2017-12-16T12:24:06.857Z,17.47
2017-12-16T12:26:38.757Z,16.07
2017-12-16T12:29:11.400Z,12.40
2017-12-16T12:31:43.362Z,16.40
2017-12-16T12:34:15.231Z,12.90
2017-12-16T12:36:47.188Z,16.93
2017-12-16T12:39:19.060Z,14.70
2017-12-16T12:41:50.948Z,14.83
2017-12-16T12:44:22.819Z,12.77
2017-12-16T12:46:54.745Z,13.53
2017-12-16T12:49:26.612Z,15.93
2017-12-16T12:51:59.304Z,15.57
2017-12-16T12:54:31.935Z,11.13
2017-12-16T12:57:04.071Z,12.80
2017-12-16T12:59:35.943Z,11.80
2017-12-16T13:02:07.832Z,19.93
2017-12-16T13:04:39.712Z,12.47
2017-12-16T13:07:13.207Z,11.13
2017-12-16T13:09:45.836Z,13.97
2017-12-16T13:12:17.736Z,12.73
2017-12-16T13:14:49.611Z,13.97
2017-12-16T13:17:22.307Z,19.83
2017-12-16T13:19:54.180Z,12.90
2017-12-16T13:22:26.083Z,15.70
2017-12-16T13:24:57.967Z,15.20
2017-12-16T13:27:30.662Z,11.70
2017-12-16T13:30:03.290Z,10.60
2017-12-16T13:32:35.192Z,12.80
2017-12-16T13:35:07.883Z,17.97
2017-12-16T13:37:40.565Z,11.50
2017-12-16T13:40:13.191Z,16.53
2017-12-16T13:42:45.140Z,15.47
2017-12-16T13:45:17.010Z,12.53
2017-12-16T13:47:48.891Z,13.07
2017-12-16T13:50:20.768Z,12.37
2017-12-16T13:52:53.463Z,14.73
2017-12-16T13:55:25.335Z,9.70
2017-12-16T13:57:57.256Z,12.43
2017-12-16T14:00:29.128Z,12.67
2017-12-16T14:03:01.821Z,11.40
2017-12-16T14:05:34.452Z,14.30
2017-12-16T14:08:06.371Z,12.30
2017-12-16T14:10:38.247Z,11.33
2017-12-16T14:13:10.183Z,12.07
2017-12-16T14:15:42.054Z,11.53
2017-12-16T14:18:13.944Z,9.90
2017-12-16T14:20:45.811Z,12.10
2017-12-16T14:23:17.746Z,13.00
2017-12-16T14:25:49.618Z,9.80
2017-12-16T14:28:21.560Z,10.57
2017-12-16T14:30:53.464Z,12.70
2017-12-16T14:33:25.348Z,9.77
2017-12-16T14:35:57.990Z,10.93
2017-12-16T14:38:29.920Z,10.37
2017-12-16T14:41:01.788Z,6.63
2017-12-16T14:43:33.704Z,10.70
2017-12-16T14:46:06.336Z,7.77
2017-12-16T14:48:38.229Z,11.57
2017-12-16T14:51:10.099Z,13.10
2017-12-16T14:53:42.783Z,6.20
2017-12-16T14:56:15.411Z,12.37
2017-12-16T14:58:47.320Z,8.93
2017-12-16T15:01:19.952Z,7.67
2017-12-16T15:03:52.600Z,9.10
2017-12-16T15:06:24.468Z,7.57
2017-12-16T15:08:56.376Z,6.80
2017-12-16T15:11:28.246Z,7.70
2017-12-16T15:14:00.179Z,16.77
2017-12-16T15:16:32.043Z,16.40
2017-12-16T15:19:04.740Z,8.43
2017-12-16T15:21:36.615Z,9.20
2017-12-16T15:24:08.527Z,10.10
2017-12-16T15:26:40.404Z,8.10
2017-12-16T15:29:12.285Z,7.90
2017-12-16T15:31:44.148Z,8.40
2017-12-16T15:34:16.051Z,10.87
2017-12-16T15:36:47.916Z,8.37
2017-12-16T15:39:19.847Z,11.30
2017-12-16T15:41:52.488Z,12.07
2017-12-16T15:44:24.396Z,10.07
2017-12-16T15:46:56.269Z,16.07
2017-12-16T15:49:28.175Z,10.93
2017-12-16T15:52:00.039Z,9.80
2017-12-16T15:54:31.927Z,12.67
2017-12-16T15:57:04.559Z,12.40
2017-12-16T15:59:36.447Z,16.30
2017-12-16T16:02:08.320Z,11.43
2017-12-16T16:04:40.994Z,14.00
2017-12-16T16:07:13.632Z,14.70
2017-12-16T16:09:45.553Z,11.80
2017-12-16T16:12:17.422Z,12.10
2017-12-16T16:14:49.348Z,13.67
2017-12-16T16:17:21.222Z,13.17
2017-12-16T16:19:53.879Z,7.50
2017-12-16T16:22:25.752Z,7.53
2017-12-16T16:24:58.451Z,11.17
2017-12-16T16:27:30.319Z,4.43
2017-12-16T16:30:02.216Z,6.13
2017-12-16T16:32:34.088Z,6.40
2017-12-16T16:35:06.032Z,5.57
2017-12-16T16:37:37.896Z,7.33
2017-12-16T16:40:09.807Z,7.77
2017-12-16T16:42:41.683Z,6.07
2017-12-16T16:45:13.611Z,5.40
2017-12-16T16:47:46.254Z,3.57
2017-12-16T16:50:18.157Z,5.23
2017-12-16T16:52:50.804Z,7.50
2017-12-16T16:55:22.812Z,7.17
2017-12-16T16:57:55.468Z,4.33
2017-12-16T17:00:28.168Z,7.23
2017-12-16T17:03:00.035Z,8.97
2017-12-16T17:05:31.942Z,7.73
2017-12-16T17:08:03.811Z,9.20
2017-12-16T17:10:35.731Z,11.47
2017-12-16T17:13:07.624Z,12.30
2017-12-16T17:15:39.544Z,9.70
2017-12-16T17:18:11.444Z,14.47
2017-12-16T17:20:43.351Z,8.47
2017-12-16T17:23:15.240Z,15.73
2017-12-16T17:25:47.123Z,9.93
2017-12-16T17:28:19.000Z,11.50
2017-12-16T17:30:50.945Z,13.50
2017-12-16T17:33:22.828Z,14.10
2017-12-16T17:35:54.712Z,12.20
2017-12-16T17:38:26.588Z,15.77
2017-12-16T17:40:58.476Z,15.90
2017-12-16T17:43:30.355Z,17.37
2017-12-16T17:46:02.274Z,11.93
2017-12-16T17:48:34.146Z,12.73
2017-12-16T17:51:06.279Z,12.67
2017-12-16T17:53:38.164Z,12.47
2017-12-16T17:56:10.091Z,17.63
2017-12-16T17:58:42.728Z,16.80
2017-12-16T18:01:14.636Z,18.47
2017-12-16T18:03:46.511Z,18.53
2017-12-16T18:06:18.481Z,21.13
2017-12-16T18:08:51.087Z,17.50
2017-12-16T18:11:23.795Z,18.50
2017-12-16T18:13:56.436Z,19.93
2017-12-16T18:16:28.365Z,21.27
2017-12-16T18:19:00.236Z,21.37
2017-12-16T18:21:32.165Z,22.57
2017-12-16T18:24:04.833Z,18.80
2017-12-16T18:26:36.735Z,17.03
2017-12-16T18:29:08.615Z,21.47
2017-12-16T18:31:40.566Z,20.00
2017-12-16T18:34:12.436Z,17.30
2017-12-16T18:36:44.346Z,21.37
2017-12-16T18:39:16.987Z,17.77
2017-12-16T18:41:48.933Z,20.77
2017-12-16T18:44:20.804Z,19.67
2017-12-16T18:46:52.713Z,18.77
2017-12-16T18:49:24.892Z,21.30
2017-12-16T18:51:56.836Z,18.53
2017-12-16T18:54:29.480Z,17.53
2017-12-16T18:57:01.370Z,16.97
2017-12-16T18:59:34.003Z,17.43
2017-12-16T19:02:05.894Z,17.77
2017-12-16T19:04:37.771Z,18.07
2017-12-16T19:07:10.468Z,20.97
2017-12-16T19:09:42.351Z,20.70
2017-12-16T19:12:14.282Z,19.60
2017-12-16T19:14:46.919Z,21.77
2017-12-16T19:17:18.843Z,19.67
2017-12-16T19:19:50.720Z,19.33
2017-12-16T19:22:22.659Z,17.77
2017-12-16T19:24:54.816Z,20.33
2017-12-16T19:27:26.719Z,17.60
2017-12-16T19:29:58.596Z,18.37
2017-12-16T19:32:30.529Z,20.90
2017-12-16T19:35:02.400Z,19.03
2017-12-16T19:37:34.309Z,18.60
2017-12-16T19:40:06.950Z,21.60
2017-12-16T19:42:38.876Z,18.33
2017-12-16T19:45:10.743Z,18.60
2017-12-16T19:47:42.675Z,16.43
2017-12-16T19:50:14.559Z,15.80
2017-12-16T19:52:46.471Z,15.07
2017-12-16T19:55:18.341Z,18.40
2017-12-16T19:57:50.259Z,13.03
2017-12-16T20:00:22.141Z,12.40
2017-12-16T20:02:54.044Z,13.30
2017-12-16T20:05:25.923Z,14.07
2017-12-16T20:07:57.840Z,16.57
2017-12-16T20:10:30.479Z,13.33
2017-12-16T20:13:02.408Z,13.63
2017-12-16T20:15:34.296Z,13.93
2017-12-16T20:18:06.223Z,15.90
2017-12-16T20:20:38.100Z,14.90
2017-12-16T20:23:10.033Z,15.90
2017-12-16T20:25:42.676Z,14.53
2017-12-16T20:28:14.601Z,16.67
2017-12-16T20:30:46.476Z,17.53
2017-12-16T20:33:18.383Z,17.97
2017-12-16T20:35:51.023Z,15.60
2017-12-16T20:38:22.996Z,15.83
2017-12-16T20:40:54.876Z,13.97
2017-12-16T20:43:27.564Z,17.40
2017-12-16T20:46:00.219Z,17.33
2017-12-16T20:48:32.120Z,18.43
2017-12-16T20:51:04.001Z,20.03
2017-12-16T20:53:35.923Z,18.27
2017-12-16T20:56:08.566Z,19.90
2017-12-16T20:58:40.468Z,21.33
2017-12-16T21:01:13.108Z,23.60
2017-12-16T21:03:45.040Z,24.37
2017-12-16T21:06:16.931Z,22.47
2017-12-16T21:08:48.846Z,22.40
2017-12-16T21:11:20.740Z,22.80
2017-12-16T21:13:52.669Z,22.53
2017-12-16T21:16:24.543Z,22.83
2017-12-16T21:18:56.438Z,22.40
2017-12-16T21:21:28.309Z,25.50
2017-12-16T21:24:00.248Z,19.70
2017-12-16T21:26:32.119Z,22.33
2017-12-16T21:29:04.048Z,24.03
2017-12-16T21:31:35.914Z,23.37
2017-12-16T21:34:07.820Z,26.10
2017-12-16T21:36:40.460Z,26.43
2017-12-16T21:39:12.383Z,24.43
2017-12-16T21:41:44.268Z,24.93
2017-12-16T21:44:16.172Z,24.80
2017-12-16T21:46:48.106Z,22.70
2017-12-16T21:49:19.988Z,23.30
2017-12-16T21:51:51.863Z,26.37
2017-12-16T21:54:24.532Z,22.43
2017-12-16T21:56:56.416Z,22.37
2017-12-16T21:59:29.100Z,26.23
2017-12-16T22:02:00.979Z,20.87
2017-12-16T22:04:32.871Z,19.67
2017-12-16T22:07:04.798Z,20.20
2017-12-16T22:09:36.676Z,20.00
2017-12-16T22:12:08.553Z,17.57
2017-12-16T22:14:40.466Z,16.87
2017-12-16T22:17:12.634Z,17.87
2017-12-16T22:19:44.556Z,20.77
2017-12-16T22:22:16.429Z,23.90
2017-12-16T22:24:49.103Z,21.03
2017-12-16T22:27:20.986Z,21.43
2017-12-16T22:29:53.675Z,21.80
2017-12-16T22:32:25.563Z,23.73
2017-12-16T22:34:57.529Z,25.87
2017-12-16T22:37:29.363Z,25.10
2017-12-16T22:40:01.288Z,24.40
2017-12-16T22:42:33.175Z,22.93
2017-12-16T22:45:05.084Z,23.00
2017-12-16T22:47:36.963Z,22.53
2017-12-16T22:50:08.856Z,26.33
2017-12-16T22:52:40.785Z,27.30
2017-12-16T22:55:12.685Z,23.83
2017-12-16T22:57:44.559Z,26.70
2017-12-16T23:00:16.475Z,27.47
2017-12-16T23:02:49.120Z,21.97
2017-12-16T23:05:21.042Z,22.37
2017-12-16T23:07:52.920Z,23.77
2017-12-16T23:10:24.832Z,20.90
2017-12-16T23:12:57.737Z,24.93
2017-12-16T23:15:29.668Z,17.60
2017-12-16T23:18:01.553Z,22.30
2017-12-16T23:20:34.439Z,19.23
2017-12-16T23:23:06.315Z,19.23
2017-12-16T23:25:38.221Z,16.87
2017-12-16T23:28:10.096Z,19.40
2017-12-16T23:30:42.025Z,16.70
2017-12-16T23:33:13.913Z,19.60
2017-12-16T23:35:46.111Z,18.17
2017-12-16T23:38:17.992Z,18.27
2017-12-16T23:40:49.911Z,18.97
2017-12-16T23:43:22.612Z,19.40
2017-12-16T23:45:54.481Z,19.83
2017-12-16T23:48:26.356Z,22.00
2017-12-16T23:50:58.291Z,24.30
2017-12-16T23:53:30.172Z,24.03
2017-12-16T23:56:02.055Z,23.07
2017-12-16T23:58:33.932Z,22.73
